MST,Max TemperatureF,Mean TemperatureF,Min TemperatureF,Max Dew PointF,MeanDew PointF,Min DewpointF,Max Humidity, Mean Humidity, Min Humidity, Max Sea Level PressureIn, Mean Sea Level PressureIn, Min Sea Level PressureIn, Max VisibilityMiles, Mean VisibilityMiles, Min VisibilityMiles, Max Wind SpeedMPH, Mean Wind SpeedMPH, Max Gust SpeedMPH,PrecipitationIn, CloudCover, Events, WindDirDegrees
2013-2-1,44,32,19,30,25,17,92,73,53,30.20,30.10,30.00,10,10,10,21,10,25,0.00,6,,284
2013-2-2,49,35,21,27,21,16,88,57,26,30.32,30.26,30.16,10,10,10,33,16,41,0.00,0,,290
2013-2-3,54,33,12,23,17,10,92,57,22,30.25,30.03,29.87,10,10,10,18,8,23,0.00,0,,281
2013-2-4,55,34,13,21,15,11,84,51,18,30.01,29.92,29.82,10,10,10,22,9,29,0.00,0,,279
2013-2-5,51,35,18,25,21,14,84,57,29,30.10,29.96,29.82,10,10,10,13,9,16,0.00,0,,230
2013-2-6,51,40,29,29,25,21,85,59,32,30.07,29.89,29.76,10,10,7,17,6,21,T,2,Snow,323
2013-2-7,50,34,17,26,17,10,92,56,20,30.20,30.14,30.06,10,10,10,15,8,18,T,0,,238
2013-2-8,51,34,17,22,19,13,75,52,29,30.08,29.91,29.76,10,10,10,21,9,24,0.00,0,,155
2013-2-9,29,25,20,25,22,18,96,89,81,29.81,29.65,29.49,10,6,0,25,14,31,T,7,Fog-Snow,15
2013-2-10,30,21,11,26,21,5,92,79,65,30.13,29.68,29.47,10,3,0,35,21,45,T,7,Fog-Snow,337
2013-2-11,30,15,-1,14,5,-4,91,71,50,30.25,30.18,30.02,10,10,10,15,10,17,0.00,0,,266
2013-2-12,41,18,-5,21,10,-8,87,66,44,30.16,30.11,30.01,10,10,10,21,12,24,0.00,1,,291
2013-2-13,48,33,18,32,22,12,96,67,37,30.01,29.93,29.84,10,10,5,33,17,40,T,3,Snow,294
2013-2-14,33,21,8,26,18,4,92,68,43,30.43,30.20,30.00,10,10,10,31,13,39,0.00,5,,318
2013-2-15,30,18,5,18,13,2,88,68,47,30.46,30.37,30.26,10,8,1,15,8,21,T,6,Snow,324
2013-2-16,54,37,20,25,21,18,75,52,29,30.21,30.04,29.91,10,10,10,29,15,37,0.00,3,,287
2013-2-17,56,38,20,25,18,9,84,50,16,29.90,29.71,29.55,10,10,10,30,13,38,0.00,0,,278
2013-2-18,37,24,10,22,16,6,88,65,41,30.22,30.01,29.77,10,9,2,28,15,36,T,3,Snow,326
2013-2-19,36,19,1,20,10,-2,87,70,52,30.28,30.15,29.96,10,10,10,25,12,31,0.00,1,,149
2013-2-20,19,16,14,16,13,3,84,70,56,30.03,29.90,29.79,10,7,1,27,20,37,T,7,Snow,145
2013-2-21,22,17,11,16,13,9,92,80,68,30.04,29.91,29.81,10,5,1,20,7,23,T,8,Snow,84
2013-2-22,36,24,12,22,16,9,92,74,56,30.04,29.95,29.84,10,10,7,14,7,18,T,5,Snow,282
2013-2-23,47,28,9,27,18,6,84,61,37,29.89,29.76,29.66,10,10,10,16,7,23,0.00,3,,252
2013-2-24,34,31,28,29,27,24,92,84,75,30.15,29.90,29.73,10,4,1,24,12,29,T,8,Snow,13
2013-2-25,39,27,14,24,17,12,92,66,40,30.14,30.04,29.91,10,10,10,12,7,17,0.00,1,,246
2013-2-26,42,26,10,27,18,6,85,63,40,30.10,29.95,29.86,10,10,9,24,11,30,T,2,,348
2013-2-27,42,30,18,27,20,15,85,61,36,30.27,30.18,30.06,10,10,9,26,15,33,T,2,Snow,329
2013-2-28,45,29,13,24,15,9,88,60,31,30.28,30.23,30.12,10,10,10,25,11,32,0.00,3,,303